sensor_id;sensor_type;location;lat;lon;timestamp;temperature;humidity
3408;DHT22;1717;50.240;8.406;2023-04-25T00:00:24;11.20;99.90
3408;DHT22;1717;50.240;8.406;2023-04-25T00:02:50;11.20;99.90
3408;DHT22;1717;50.240;8.406;2023-04-25T00:05:17;11.20;99.90
3408;DHT22;1717;50.240;8.406;2023-04-25T00:07:46;11.10;99.90
3408;DHT22;1717;50.240;8.406;2023-04-25T00:10:13;11.10;99.90
3408;DHT22;1717;50.240;8.406;2023-04-25T00:12:40;11.10;99.90
3408;DHT22;1717;50.240;8.406;2023-04-25T00:15:07;11.10;99.90
3408;DHT22;1717;50.240;8.406;2023-04-25T00:17:35;11.10;99.90
3408;DHT22;1717;50.240;8.406;2023-04-25T00:20:04;11.00;99.90
3408;DHT22;1717;50.240;8.406;2023-04-25T00:22:33;11.10;99.90
3408;DHT22;1717;50.240;8.406;2023-04-25T00:25:04;11.10;99.90
3408;DHT22;1717;50.240;8.406;2023-04-25T00:27:31;11.10;99.90
3408;DHT22;1717;50.240;8.406;2023-04-25T00:29:58;11.00;99.90
3408;DHT22;1717;50.240;8.406;2023-04-25T00:32:25;10.90;99.90
3408;DHT22;1717;50.240;8.406;2023-04-25T00:34:52;10.90;99.90
3408;DHT22;1717;50.240;8.406;2023-04-25T00:37:19;10.90;99.90
3408;DHT22;1717;50.240;8.406;2023-04-25T00:39:46;10.90;99.90
3408;DHT22;1717;50.240;8.406;2023-04-25T00:42:14;10.90;99.90
3408;DHT22;1717;50.240;8.406;2023-04-25T00:44:42;10.90;99.90
3408;DHT22;1717;50.240;8.406;2023-04-25T00:47:11;10.90;99.90
3408;DHT22;1717;50.240;8.406;2023-04-25T00:49:38;11.00;99.90
3408;DHT22;1717;50.240;8.406;2023-04-25T00:52:05;10.90;99.90
3408;DHT22;1717;50.240;8.406;2023-04-25T00:54:31;10.90;99.90
3408;DHT22;1717;50.240;8.406;2023-04-25T00:56:58;10.90;99.90
3408;DHT22;1717;50.240;8.406;2023-04-25T00:59:28;10.90;99.90
3408;DHT22;1717;50.240;8.406;2023-04-25T01:01:56;11.00;99.90
3408;DHT22;1717;50.240;8.406;2023-04-25T01:04:23;10.90;99.90
3408;DHT22;1717;50.240;8.406;2023-04-25T01:06:50;11.00;99.90
3408;DHT22;1717;50.240;8.406;2023-04-25T01:09:17;10.90;99.90
3408;DHT22;1717;50.240;8.406;2023-04-25T01:11:45;10.90;99.90
3408;DHT22;1717;50.240;8.406;2023-04-25T01:14:12;10.90;99.90
3408;DHT22;1717;50.240;8.406;2023-04-25T01:16:40;10.90;99.90
3408;DHT22;1717;50.240;8.406;2023-04-25T01:19:09;10.90;99.90
3408;DHT22;1717;50.240;8.406;2023-04-25T01:21:37;10.80;99.90
3408;DHT22;1717;50.240;8.406;2023-04-25T01:24:05;10.80;99.90
3408;DHT22;1717;50.240;8.406;2023-04-25T01:26:33;10.70;99.90
3408;DHT22;1717;50.240;8.406;2023-04-25T01:29:01;10.80;99.90
3408;DHT22;1717;50.240;8.406;2023-04-25T01:31:28;10.50;99.90
3408;DHT22;1717;50.240;8.406;2023-04-25T01:33:55;10.60;99.90
3408;DHT22;1717;50.240;8.406;2023-04-25T01:36:22;10.60;99.90
3408;DHT22;1717;50.240;8.406;2023-04-25T01:38:50;10.60;99.90
3408;DHT22;1717;50.240;8.406;2023-04-25T01:41:18;10.60;99.90
3408;DHT22;1717;50.240;8.406;2023-04-25T01:43:45;10.60;99.90
3408;DHT22;1717;50.240;8.406;2023-04-25T01:46:13;10.70;99.90
3408;DHT22;1717;50.240;8.406;2023-04-25T01:48:40;10.70;99.90
3408;DHT22;1717;50.240;8.406;2023-04-25T01:51:07;10.70;99.90
3408;DHT22;1717;50.240;8.406;2023-04-25T01:53:34;10.70;99.90
3408;DHT22;1717;50.240;8.406;2023-04-25T01:56:02;10.60;99.90
3408;DHT22;1717;50.240;8.406;2023-04-25T01:58:29;10.60;99.90
3408;DHT22;1717;50.240;8.406;2023-04-25T02:00:56;10.60;99.90
3408;DHT22;1717;50.240;8.406;2023-04-25T02:03:23;10.60;99.90
3408;DHT22;1717;50.240;8.406;2023-04-25T02:05:50;10.50;99.90
3408;DHT22;1717;50.240;8.406;2023-04-25T02:08:17;10.50;99.90
3408;DHT22;1717;50.240;8.406;2023-04-25T02:10:44;10.50;99.90
3408;DHT22;1717;50.240;8.406;2023-04-25T02:13:12;10.50;99.90
3408;DHT22;1717;50.240;8.406;2023-04-25T02:15:39;10.50;99.90
3408;DHT22;1717;50.240;8.406;2023-04-25T02:18:06;10.50;99.90
3408;DHT22;1717;50.240;8.406;2023-04-25T02:20:33;10.60;99.90
3408;DHT22;1717;50.240;8.406;2023-04-25T02:23:00;10.60;99.90
3408;DHT22;1717;50.240;8.406;2023-04-25T02:25:27;10.50;99.90
3408;DHT22;1717;50.240;8.406;2023-04-25T02:27:54;10.50;99.90
3408;DHT22;1717;50.240;8.406;2023-04-25T02:30:22;10.40;99.90
3408;DHT22;1717;50.240;8.406;2023-04-25T02:32:49;10.40;99.90
3408;DHT22;1717;50.240;8.406;2023-04-25T02:35:16;10.40;99.90
3408;DHT22;1717;50.240;8.406;2023-04-25T02:37:43;10.40;99.90
3408;DHT22;1717;50.240;8.406;2023-04-25T02:40:10;10.40;99.90
3408;DHT22;1717;50.240;8.406;2023-04-25T02:42:37;10.40;99.90
3408;DHT22;1717;50.240;8.406;2023-04-25T02:45:05;10.40;99.90
3408;DHT22;1717;50.240;8.406;2023-04-25T02:47:33;10.40;99.90
3408;DHT22;1717;50.240;8.406;2023-04-25T02:50:00;10.40;99.90
3408;DHT22;1717;50.240;8.406;2023-04-25T02:52:27;10.30;99.90
3408;DHT22;1717;50.240;8.406;2023-04-25T02:54:53;10.30;99.90
3408;DHT22;1717;50.240;8.406;2023-04-25T02:57:20;10.30;99.90
3408;DHT22;1717;50.240;8.406;2023-04-25T02:59:47;10.30;99.90
3408;DHT22;1717;50.240;8.406;2023-04-25T03:02:14;10.20;99.90
3408;DHT22;1717;50.240;8.406;2023-04-25T03:04:42;10.30;99.90
3408;DHT22;1717;50.240;8.406;2023-04-25T03:07:09;10.30;99.90
3408;DHT22;1717;50.240;8.406;2023-04-25T03:09:36;10.30;99.90
3408;DHT22;1717;50.240;8.406;2023-04-25T03:12:03;10.40;99.90
3408;DHT22;1717;50.240;8.406;2023-04-25T03:14:30;10.30;99.90
3408;DHT22;1717;50.240;8.406;2023-04-25T03:16:57;10.30;99.90
3408;DHT22;1717;50.240;8.406;2023-04-25T03:19:23;10.20;99.90
3408;DHT22;1717;50.240;8.406;2023-04-25T03:21:51;10.20;99.90
3408;DHT22;1717;50.240;8.406;2023-04-25T03:24:19;10.20;99.90
3408;DHT22;1717;50.240;8.406;2023-04-25T03:26:45;10.10;99.90
3408;DHT22;1717;50.240;8.406;2023-04-25T03:29:12;10.00;99.90
3408;DHT22;1717;50.240;8.406;2023-04-25T03:31:39;10.00;99.90
3408;DHT22;1717;50.240;8.406;2023-04-25T03:34:06;10.00;99.90
3408;DHT22;1717;50.240;8.406;2023-04-25T03:36:33;10.00;99.90
3408;DHT22;1717;50.240;8.406;2023-04-25T03:39:01;9.80;99.90
3408;DHT22;1717;50.240;8.406;2023-04-25T03:41:28;9.90;99.90
3408;DHT22;1717;50.240;8.406;2023-04-25T03:43:55;9.80;99.90
3408;DHT22;1717;50.240;8.406;2023-04-25T03:46:22;9.90;99.90
3408;DHT22;1717;50.240;8.406;2023-04-25T03:48:48;9.90;99.90
3408;DHT22;1717;50.240;8.406;2023-04-25T03:51:15;10.00;99.90
3408;DHT22;1717;50.240;8.406;2023-04-25T03:53:42;10.00;99.90
3408;DHT22;1717;50.240;8.406;2023-04-25T03:56:10;9.90;99.90
3408;DHT22;1717;50.240;8.406;2023-04-25T03:58:37;10.00;99.90
3408;DHT22;1717;50.240;8.406;2023-04-25T04:01:04;9.90;99.90
3408;DHT22;1717;50.240;8.406;2023-04-25T04:03:33;10.00;99.90
3408;DHT22;1717;50.240;8.406;2023-04-25T04:06:00;10.10;99.90
3408;DHT22;1717;50.240;8.406;2023-04-25T04:08:28;10.00;99.90
3408;DHT22;1717;50.240;8.406;2023-04-25T04:10:55;9.90;99.90
3408;DHT22;1717;50.240;8.406;2023-04-25T04:13:48;9.70;99.90
3408;DHT22;1717;50.240;8.406;2023-04-25T04:16:18;9.70;99.90
3408;DHT22;1717;50.240;8.406;2023-04-25T04:18:45;9.70;99.90
3408;DHT22;1717;50.240;8.406;2023-04-25T04:21:12;9.60;99.90
3408;DHT22;1717;50.240;8.406;2023-04-25T04:23:39;9.60;99.90
3408;DHT22;1717;50.240;8.406;2023-04-25T04:26:06;9.60;99.90
3408;DHT22;1717;50.240;8.406;2023-04-25T04:28:34;9.50;99.90
3408;DHT22;1717;50.240;8.406;2023-04-25T04:31:02;9.50;99.90
3408;DHT22;1717;50.240;8.406;2023-04-25T04:33:29;9.50;99.90
3408;DHT22;1717;50.240;8.406;2023-04-25T04:35:57;9.50;99.90
3408;DHT22;1717;50.240;8.406;2023-04-25T04:38:24;9.60;99.90
3408;DHT22;1717;50.240;8.406;2023-04-25T04:40:51;9.50;99.90
3408;DHT22;1717;50.240;8.406;2023-04-25T04:43:19;9.50;99.90
3408;DHT22;1717;50.240;8.406;2023-04-25T04:45:45;9.40;99.90
3408;DHT22;1717;50.240;8.406;2023-04-25T04:48:14;9.50;99.90
3408;DHT22;1717;50.240;8.406;2023-04-25T04:50:43;9.40;99.90
3408;DHT22;1717;50.240;8.406;2023-04-25T04:53:10;9.40;99.90
3408;DHT22;1717;50.240;8.406;2023-04-25T04:55:37;9.40;99.90
3408;DHT22;1717;50.240;8.406;2023-04-25T04:58:04;9.40;99.90
3408;DHT22;1717;50.240;8.406;2023-04-25T05:00:32;9.40;99.90
3408;DHT22;1717;50.240;8.406;2023-04-25T05:02:59;9.40;99.90
3408;DHT22;1717;50.240;8.406;2023-04-25T05:05:27;9.40;99.90
3408;DHT22;1717;50.240;8.406;2023-04-25T05:07:54;9.40;99.90
3408;DHT22;1717;50.240;8.406;2023-04-25T05:10:21;9.40;99.90
3408;DHT22;1717;50.240;8.406;2023-04-25T05:12:48;9.40;99.90
3408;DHT22;1717;50.240;8.406;2023-04-25T05:15:14;9.40;99.90
3408;DHT22;1717;50.240;8.406;2023-04-25T05:17:41;9.40;99.90
3408;DHT22;1717;50.240;8.406;2023-04-25T05:20:09;9.30;99.90
3408;DHT22;1717;50.240;8.406;2023-04-25T05:22:37;9.40;99.90
3408;DHT22;1717;50.240;8.406;2023-04-25T05:25:05;9.40;99.90
3408;DHT22;1717;50.240;8.406;2023-04-25T05:27:32;9.40;99.90
3408;DHT22;1717;50.240;8.406;2023-04-25T05:29:59;9.40;99.90
3408;DHT22;1717;50.240;8.406;2023-04-25T05:32:26;9.40;99.90
3408;DHT22;1717;50.240;8.406;2023-04-25T05:34:53;9.40;99.90
3408;DHT22;1717;50.240;8.406;2023-04-25T05:37:20;9.40;99.90
3408;DHT22;1717;50.240;8.406;2023-04-25T05:39:48;9.50;99.90
3408;DHT22;1717;50.240;8.406;2023-04-25T05:42:15;9.40;99.90
3408;DHT22;1717;50.240;8.406;2023-04-25T05:44:42;9.40;99.90
3408;DHT22;1717;50.240;8.406;2023-04-25T05:47:09;9.40;99.90
3408;DHT22;1717;50.240;8.406;2023-04-25T05:49:36;9.50;99.90
3408;DHT22;1717;50.240;8.406;2023-04-25T05:52:02;9.40;99.90
3408;DHT22;1717;50.240;8.406;2023-04-25T05:54:29;9.40;99.90
3408;DHT22;1717;50.240;8.406;2023-04-25T05:56:57;9.40;99.90
3408;DHT22;1717;50.240;8.406;2023-04-25T05:59:24;9.40;99.90
3408;DHT22;1717;50.240;8.406;2023-04-25T06:01:51;9.40;99.90
3408;DHT22;1717;50.240;8.406;2023-04-25T06:04:18;9.40;99.90
3408;DHT22;1717;50.240;8.406;2023-04-25T06:06:45;9.40;99.90
3408;DHT22;1717;50.240;8.406;2023-04-25T06:09:12;9.40;99.90
3408;DHT22;1717;50.240;8.406;2023-04-25T06:11:39;9.40;99.90
3408;DHT22;1717;50.240;8.406;2023-04-25T06:14:07;9.40;99.90
3408;DHT22;1717;50.240;8.406;2023-04-25T06:16:34;9.40;99.90
3408;DHT22;1717;50.240;8.406;2023-04-25T06:19:01;9.40;99.90
3408;DHT22;1717;50.240;8.406;2023-04-25T06:21:28;9.30;99.90
3408;DHT22;1717;50.240;8.406;2023-04-25T06:23:54;9.40;99.90
3408;DHT22;1717;50.240;8.406;2023-04-25T06:26:21;9.30;99.90
3408;DHT22;1717;50.240;8.406;2023-04-25T06:28:48;9.30;99.90
3408;DHT22;1717;50.240;8.406;2023-04-25T06:31:16;9.40;99.90
3408;DHT22;1717;50.240;8.406;2023-04-25T06:33:43;9.30;99.90
3408;DHT22;1717;50.240;8.406;2023-04-25T06:36:10;9.40;99.90
3408;DHT22;1717;50.240;8.406;2023-04-25T06:38:37;9.40;99.90
3408;DHT22;1717;50.240;8.406;2023-04-25T06:41:04;9.50;99.90
3408;DHT22;1717;50.240;8.406;2023-04-25T06:43:30;9.60;99.90
3408;DHT22;1717;50.240;8.406;2023-04-25T06:45:59;9.60;99.90
3408;DHT22;1717;50.240;8.406;2023-04-25T06:48:27;9.60;99.90
3408;DHT22;1717;50.240;8.406;2023-04-25T06:50:54;9.60;99.90
3408;DHT22;1717;50.240;8.406;2023-04-25T06:53:22;9.60;99.90
3408;DHT22;1717;50.240;8.406;2023-04-25T06:55:50;9.60;99.90
3408;DHT22;1717;50.240;8.406;2023-04-25T06:58:16;9.80;99.90
3408;DHT22;1717;50.240;8.406;2023-04-25T07:00:43;9.70;99.90
3408;DHT22;1717;50.240;8.406;2023-04-25T07:03:10;9.70;99.90
3408;DHT22;1717;50.240;8.406;2023-04-25T07:05:38;9.70;99.90
3408;DHT22;1717;50.240;8.406;2023-04-25T07:08:05;9.80;99.90
3408;DHT22;1717;50.240;8.406;2023-04-25T07:10:32;9.80;99.90
3408;DHT22;1717;50.240;8.406;2023-04-25T07:12:59;9.90;99.90
3408;DHT22;1717;50.240;8.406;2023-04-25T07:15:26;9.90;99.90
3408;DHT22;1717;50.240;8.406;2023-04-25T07:17:53;10.00;99.90
3408;DHT22;1717;50.240;8.406;2023-04-25T07:20:20;10.10;99.90
3408;DHT22;1717;50.240;8.406;2023-04-25T07:22:48;10.20;99.90
3408;DHT22;1717;50.240;8.406;2023-04-25T07:25:15;10.20;99.90
3408;DHT22;1717;50.240;8.406;2023-04-25T07:27:42;10.30;99.90
3408;DHT22;1717;50.240;8.406;2023-04-25T07:30:10;10.40;99.90
3408;DHT22;1717;50.240;8.406;2023-04-25T07:32:38;10.40;99.90
3408;DHT22;1717;50.240;8.406;2023-04-25T07:35:05;10.50;99.90
3408;DHT22;1717;50.240;8.406;2023-04-25T07:37:33;10.60;99.90
3408;DHT22;1717;50.240;8.406;2023-04-25T07:40:02;10.60;99.90
3408;DHT22;1717;50.240;8.406;2023-04-25T07:42:30;10.70;99.90
3408;DHT22;1717;50.240;8.406;2023-04-25T07:44:57;10.80;99.90
3408;DHT22;1717;50.240;8.406;2023-04-25T07:47:24;10.90;99.90
3408;DHT22;1717;50.240;8.406;2023-04-25T07:49:51;11.00;99.90
3408;DHT22;1717;50.240;8.406;2023-04-25T07:52:18;11.10;99.90
3408;DHT22;1717;50.240;8.406;2023-04-25T07:54:45;11.10;99.90
3408;DHT22;1717;50.240;8.406;2023-04-25T07:57:14;11.20;99.90
3408;DHT22;1717;50.240;8.406;2023-04-25T07:59:42;11.30;99.90
3408;DHT22;1717;50.240;8.406;2023-04-25T08:02:09;11.40;99.90
3408;DHT22;1717;50.240;8.406;2023-04-25T08:04:36;11.50;99.90
3408;DHT22;1717;50.240;8.406;2023-04-25T08:07:03;11.60;99.90
3408;DHT22;1717;50.240;8.406;2023-04-25T08:09:30;11.60;99.90
3408;DHT22;1717;50.240;8.406;2023-04-25T08:12:00;11.70;99.90
3408;DHT22;1717;50.240;8.406;2023-04-25T08:14:28;11.70;99.90
3408;DHT22;1717;50.240;8.406;2023-04-25T08:17:00;11.80;99.90
3408;DHT22;1717;50.240;8.406;2023-04-25T08:19:27;11.80;99.90
3408;DHT22;1717;50.240;8.406;2023-04-25T08:21:54;11.90;99.90
3408;DHT22;1717;50.240;8.406;2023-04-25T08:24:22;11.90;99.90
3408;DHT22;1717;50.240;8.406;2023-04-25T08:26:49;11.90;99.90
3408;DHT22;1717;50.240;8.406;2023-04-25T08:29:15;12.00;99.90
3408;DHT22;1717;50.240;8.406;2023-04-25T08:31:44;12.00;99.90
3408;DHT22;1717;50.240;8.406;2023-04-25T08:34:11;12.10;99.90
3408;DHT22;1717;50.240;8.406;2023-04-25T08:36:39;12.10;99.90
3408;DHT22;1717;50.240;8.406;2023-04-25T08:39:06;12.10;99.20
3408;DHT22;1717;50.240;8.406;2023-04-25T08:41:33;12.20;98.70
3408;DHT22;1717;50.240;8.406;2023-04-25T08:44:01;12.20;97.80
3408;DHT22;1717;50.240;8.406;2023-04-25T08:46:30;12.20;97.70
3408;DHT22;1717;50.240;8.406;2023-04-25T08:49:01;12.20;97.70
3408;DHT22;1717;50.240;8.406;2023-04-25T08:51:31;12.30;96.90
3408;DHT22;1717;50.240;8.406;2023-04-25T08:54:07;12.20;96.50
3408;DHT22;1717;50.240;8.406;2023-04-25T08:56:35;12.20;96.70
3408;DHT22;1717;50.240;8.406;2023-04-25T08:59:02;12.30;96.60
3408;DHT22;1717;50.240;8.406;2023-04-25T09:01:29;12.30;96.80
3408;DHT22;1717;50.240;8.406;2023-04-25T09:03:58;12.30;96.10
3408;DHT22;1717;50.240;8.406;2023-04-25T09:06:25;12.30;95.50
3408;DHT22;1717;50.240;8.406;2023-04-25T09:08:53;12.50;95.30
3408;DHT22;1717;50.240;8.406;2023-04-25T09:11:20;12.40;95.60
3408;DHT22;1717;50.240;8.406;2023-04-25T09:13:46;12.40;94.90
3408;DHT22;1717;50.240;8.406;2023-04-25T09:16:13;12.50;95.20
3408;DHT22;1717;50.240;8.406;2023-04-25T09:18:42;12.50;94.80
3408;DHT22;1717;50.240;8.406;2023-04-25T09:21:11;12.60;94.40
3408;DHT22;1717;50.240;8.406;2023-04-25T09:23:40;12.60;94.30
3408;DHT22;1717;50.240;8.406;2023-04-25T09:26:07;12.60;93.70
3408;DHT22;1717;50.240;8.406;2023-04-25T09:28:35;12.70;93.50
3408;DHT22;1717;50.240;8.406;2023-04-25T09:31:03;12.70;93.50
3408;DHT22;1717;50.240;8.406;2023-04-25T09:33:32;12.70;93.00
3408;DHT22;1717;50.240;8.406;2023-04-25T09:36:02;12.70;92.50
3408;DHT22;1717;50.240;8.406;2023-04-25T09:38:32;12.70;92.40
3408;DHT22;1717;50.240;8.406;2023-04-25T09:41:05;12.80;92.50
3408;DHT22;1717;50.240;8.406;2023-04-25T09:43:32;12.70;91.90
3408;DHT22;1717;50.240;8.406;2023-04-25T09:45:59;12.80;92.40
3408;DHT22;1717;50.240;8.406;2023-04-25T09:48:27;12.80;91.80
3408;DHT22;1717;50.240;8.406;2023-04-25T09:51:05;12.80;91.80
3408;DHT22;1717;50.240;8.406;2023-04-25T09:53:33;12.90;91.70
3408;DHT22;1717;50.240;8.406;2023-04-25T09:56:03;13.00;91.30
3408;DHT22;1717;50.240;8.406;2023-04-25T09:58:31;13.00;91.20
3408;DHT22;1717;50.240;8.406;2023-04-25T10:01:00;13.00;90.90
3408;DHT22;1717;50.240;8.406;2023-04-25T10:03:29;13.10;90.90
3408;DHT22;1717;50.240;8.406;2023-04-25T10:05:58;13.10;90.50
3408;DHT22;1717;50.240;8.406;2023-04-25T10:08:28;13.20;90.50
3408;DHT22;1717;50.240;8.406;2023-04-25T10:11:00;13.20;89.60
3408;DHT22;1717;50.240;8.406;2023-04-25T10:13:27;13.10;89.60
3408;DHT22;1717;50.240;8.406;2023-04-25T10:15:55;13.20;89.30
3408;DHT22;1717;50.240;8.406;2023-04-25T10:18:24;13.20;89.00
3408;DHT22;1717;50.240;8.406;2023-04-25T10:20:52;13.20;88.70
3408;DHT22;1717;50.240;8.406;2023-04-25T10:23:20;13.30;88.80
3408;DHT22;1717;50.240;8.406;2023-04-25T10:25:47;13.20;89.00
3408;DHT22;1717;50.240;8.406;2023-04-25T10:28:16;13.40;89.30
3408;DHT22;1717;50.240;8.406;2023-04-25T10:30:57;13.20;89.30
3408;DHT22;1717;50.240;8.406;2023-04-25T10:35:58;13.20;87.60
3408;DHT22;1717;50.240;8.406;2023-04-25T10:38:26;13.20;87.40
3408;DHT22;1717;50.240;8.406;2023-04-25T10:41:06;13.20;87.00
3408;DHT22;1717;50.240;8.406;2023-04-25T10:43:37;13.10;85.30
3408;DHT22;1717;50.240;8.406;2023-04-25T10:46:16;13.00;84.80
3408;DHT22;1717;50.240;8.406;2023-04-25T10:48:48;13.00;85.80
3408;DHT22;1717;50.240;8.406;2023-04-25T10:51:20;13.00;85.90
3408;DHT22;1717;50.240;8.406;2023-04-25T10:53:56;12.90;83.60
3408;DHT22;1717;50.240;8.406;2023-04-25T10:56:25;12.90;82.80
3408;DHT22;1717;50.240;8.406;2023-04-25T10:59:04;12.80;82.50
3408;DHT22;1717;50.240;8.406;2023-04-25T11:01:37;12.80;81.90
3408;DHT22;1717;50.240;8.406;2023-04-25T11:04:05;12.80;82.30
3408;DHT22;1717;50.240;8.406;2023-04-25T11:06:42;12.90;82.10
3408;DHT22;1717;50.240;8.406;2023-04-25T11:09:13;12.90;82.50
3408;DHT22;1717;50.240;8.406;2023-04-25T11:11:40;13.00;82.50
3408;DHT22;1717;50.240;8.406;2023-04-25T11:14:08;13.10;81.90
3408;DHT22;1717;50.240;8.406;2023-04-25T11:16:35;13.10;81.50
3408;DHT22;1717;50.240;8.406;2023-04-25T11:19:02;13.10;81.10
3408;DHT22;1717;50.240;8.406;2023-04-25T11:21:30;13.20;80.50
3408;DHT22;1717;50.240;8.406;2023-04-25T11:23:59;13.10;79.20
3408;DHT22;1717;50.240;8.406;2023-04-25T11:26:27;13.20;80.50
3408;DHT22;1717;50.240;8.406;2023-04-25T11:28:57;13.30;80.30
3408;DHT22;1717;50.240;8.406;2023-04-25T11:31:26;13.40;79.50
3408;DHT22;1717;50.240;8.406;2023-04-25T11:33:54;13.40;79.20
3408;DHT22;1717;50.240;8.406;2023-04-25T11:36:23;13.50;79.20
3408;DHT22;1717;50.240;8.406;2023-04-25T11:38:51;13.50;78.10
3408;DHT22;1717;50.240;8.406;2023-04-25T11:41:18;13.50;77.70
3408;DHT22;1717;50.240;8.406;2023-04-25T11:43:45;13.50;78.20
3408;DHT22;1717;50.240;8.406;2023-04-25T11:46:12;13.50;77.90
3408;DHT22;1717;50.240;8.406;2023-04-25T11:48:41;13.50;77.10
3408;DHT22;1717;50.240;8.406;2023-04-25T11:51:10;13.50;76.60
3408;DHT22;1717;50.240;8.406;2023-04-25T11:53:41;13.40;76.10
3408;DHT22;1717;50.240;8.406;2023-04-25T11:56:09;13.40;76.70
3408;DHT22;1717;50.240;8.406;2023-04-25T11:58:54;13.30;77.20
3408;DHT22;1717;50.240;8.406;2023-04-25T12:01:26;13.30;77.60
3408;DHT22;1717;50.240;8.406;2023-04-25T12:03:54;13.30;77.50
3408;DHT22;1717;50.240;8.406;2023-04-25T12:06:25;13.20;77.40
3408;DHT22;1717;50.240;8.406;2023-04-25T12:09:01;13.20;77.10
3408;DHT22;1717;50.240;8.406;2023-04-25T12:11:30;13.20;77.70
3408;DHT22;1717;50.240;8.406;2023-04-25T12:14:01;13.30;77.90
3408;DHT22;1717;50.240;8.406;2023-04-25T12:16:28;13.10;77.50
3408;DHT22;1717;50.240;8.406;2023-04-25T12:18:57;13.10;77.70
3408;DHT22;1717;50.240;8.406;2023-04-25T12:21:28;13.10;77.80
3408;DHT22;1717;50.240;8.406;2023-04-25T12:23:56;13.10;78.30
3408;DHT22;1717;50.240;8.406;2023-04-25T12:26:23;13.10;77.80
3408;DHT22;1717;50.240;8.406;2023-04-25T12:28:50;13.20;77.70
3408;DHT22;1717;50.240;8.406;2023-04-25T12:31:17;13.20;78.00
3408;DHT22;1717;50.240;8.406;2023-04-25T12:33:44;13.20;78.10
3408;DHT22;1717;50.240;8.406;2023-04-25T12:36:14;13.30;78.00
3408;DHT22;1717;50.240;8.406;2023-04-25T12:38:42;13.40;77.50
3408;DHT22;1717;50.240;8.406;2023-04-25T12:41:10;13.50;77.10
3408;DHT22;1717;50.240;8.406;2023-04-25T12:43:36;13.60;76.80
3408;DHT22;1717;50.240;8.406;2023-04-25T12:46:03;13.70;76.70
3408;DHT22;1717;50.240;8.406;2023-04-25T12:48:30;13.80;76.20
3408;DHT22;1717;50.240;8.406;2023-04-25T12:50:57;13.90;75.60
3408;DHT22;1717;50.240;8.406;2023-04-25T12:53:25;14.00;75.40
3408;DHT22;1717;50.240;8.406;2023-04-25T12:55:52;14.10;74.50
3408;DHT22;1717;50.240;8.406;2023-04-25T12:58:19;14.10;74.40
3408;DHT22;1717;50.240;8.406;2023-04-25T13:00:46;14.20;73.60
3408;DHT22;1717;50.240;8.406;2023-04-25T13:03:13;14.20;72.20
3408;DHT22;1717;50.240;8.406;2023-04-25T13:05:40;14.20;71.10
3408;DHT22;1717;50.240;8.406;2023-04-25T13:08:07;14.30;71.20
3408;DHT22;1717;50.240;8.406;2023-04-25T13:10:37;14.40;71.60
3408;DHT22;1717;50.240;8.406;2023-04-25T13:13:04;14.40;69.90
3408;DHT22;1717;50.240;8.406;2023-04-25T13:15:31;14.40;69.30
3408;DHT22;1717;50.240;8.406;2023-04-25T13:17:58;14.50;68.70
3408;DHT22;1717;50.240;8.406;2023-04-25T13:20:26;14.50;68.40
3408;DHT22;1717;50.240;8.406;2023-04-25T13:22:52;14.50;68.00
3408;DHT22;1717;50.240;8.406;2023-04-25T13:25:19;14.50;67.90
3408;DHT22;1717;50.240;8.406;2023-04-25T13:27:48;14.70;67.20
3408;DHT22;1717;50.240;8.406;2023-04-25T13:30:15;14.80;67.20
3408;DHT22;1717;50.240;8.406;2023-04-25T13:32:42;14.80;66.80
3408;DHT22;1717;50.240;8.406;2023-04-25T13:35:12;14.80;66.40
3408;DHT22;1717;50.240;8.406;2023-04-25T13:37:39;14.80;65.50
3408;DHT22;1717;50.240;8.406;2023-04-25T13:40:08;14.90;65.50
3408;DHT22;1717;50.240;8.406;2023-04-25T13:42:37;14.90;64.50
3408;DHT22;1717;50.240;8.406;2023-04-25T13:45:06;14.90;63.90
3408;DHT22;1717;50.240;8.406;2023-04-25T13:47:34;15.00;63.80
3408;DHT22;1717;50.240;8.406;2023-04-25T13:50:01;15.10;63.60
3408;DHT22;1717;50.240;8.406;2023-04-25T13:52:28;15.20;63.50
3408;DHT22;1717;50.240;8.406;2023-04-25T13:54:55;15.30;63.60
3408;DHT22;1717;50.240;8.406;2023-04-25T13:57:22;15.40;63.30
3408;DHT22;1717;50.240;8.406;2023-04-25T13:59:50;15.50;62.90
3408;DHT22;1717;50.240;8.406;2023-04-25T14:02:18;15.60;62.80
3408;DHT22;1717;50.240;8.406;2023-04-25T14:04:45;15.70;62.10
3408;DHT22;1717;50.240;8.406;2023-04-25T14:07:12;15.70;62.30
3408;DHT22;1717;50.240;8.406;2023-04-25T14:09:41;15.60;60.60
3408;DHT22;1717;50.240;8.406;2023-04-25T14:12:08;15.60;59.60
3408;DHT22;1717;50.240;8.406;2023-04-25T14:14:35;15.50;59.30
3408;DHT22;1717;50.240;8.406;2023-04-25T14:17:02;15.50;59.00
3408;DHT22;1717;50.240;8.406;2023-04-25T14:19:30;15.40;58.70
3408;DHT22;1717;50.240;8.406;2023-04-25T14:21:57;15.40;59.00
3408;DHT22;1717;50.240;8.406;2023-04-25T14:24:24;15.20;59.00
3408;DHT22;1717;50.240;8.406;2023-04-25T14:26:51;15.20;59.10
3408;DHT22;1717;50.240;8.406;2023-04-25T14:29:18;15.20;58.90
3408;DHT22;1717;50.240;8.406;2023-04-25T14:31:45;15.10;59.10
3408;DHT22;1717;50.240;8.406;2023-04-25T14:34:11;15.00;59.30
3408;DHT22;1717;50.240;8.406;2023-04-25T14:36:40;14.90;59.20
3408;DHT22;1717;50.240;8.406;2023-04-25T14:39:07;15.00;59.40
3408;DHT22;1717;50.240;8.406;2023-04-25T14:41:34;14.80;59.40
3408;DHT22;1717;50.240;8.406;2023-04-25T14:44:01;14.70;59.50
3408;DHT22;1717;50.240;8.406;2023-04-25T14:46:28;14.70;59.30
3408;DHT22;1717;50.240;8.406;2023-04-25T14:48:55;14.60;59.50
3408;DHT22;1717;50.240;8.406;2023-04-25T14:51:22;14.60;59.80
3408;DHT22;1717;50.240;8.406;2023-04-25T14:53:50;14.40;59.90
3408;DHT22;1717;50.240;8.406;2023-04-25T14:56:18;14.40;60.50
3408;DHT22;1717;50.240;8.406;2023-04-25T14:58:45;14.40;60.80
3408;DHT22;1717;50.240;8.406;2023-04-25T15:01:12;14.40;61.10
3408;DHT22;1717;50.240;8.406;2023-04-25T15:03:40;14.40;61.40
3408;DHT22;1717;50.240;8.406;2023-04-25T15:06:07;14.30;61.70
3408;DHT22;1717;50.240;8.406;2023-04-25T15:08:34;14.40;62.00
3408;DHT22;1717;50.240;8.406;2023-04-25T15:11:02;14.50;62.00
3408;DHT22;1717;50.240;8.406;2023-04-25T15:13:29;14.60;62.50
3408;DHT22;1717;50.240;8.406;2023-04-25T15:15:56;14.60;62.10
3408;DHT22;1717;50.240;8.406;2023-04-25T15:18:23;14.70;61.60
3408;DHT22;1717;50.240;8.406;2023-04-25T15:20:51;14.80;61.50
3408;DHT22;1717;50.240;8.406;2023-04-25T15:23:19;14.80;60.70
3408;DHT22;1717;50.240;8.406;2023-04-25T15:25:47;14.80;60.00
3408;DHT22;1717;50.240;8.406;2023-04-25T15:28:15;14.80;59.70
3408;DHT22;1717;50.240;8.406;2023-04-25T15:30:42;14.80;59.70
3408;DHT22;1717;50.240;8.406;2023-04-25T15:33:09;14.80;59.60
3408;DHT22;1717;50.240;8.406;2023-04-25T15:35:36;14.80;59.60
3408;DHT22;1717;50.240;8.406;2023-04-25T15:38:03;14.80;59.40
3408;DHT22;1717;50.240;8.406;2023-04-25T15:40:30;14.90;58.90
3408;DHT22;1717;50.240;8.406;2023-04-25T15:42:57;14.90;58.60
3408;DHT22;1717;50.240;8.406;2023-04-25T15:45:25;15.00;59.00
3408;DHT22;1717;50.240;8.406;2023-04-25T15:47:54;15.00;58.00
3408;DHT22;1717;50.240;8.406;2023-04-25T15:50:21;15.00;58.30
3408;DHT22;1717;50.240;8.406;2023-04-25T15:52:49;15.10;58.80
3408;DHT22;1717;50.240;8.406;2023-04-25T15:55:18;15.10;58.00
3408;DHT22;1717;50.240;8.406;2023-04-25T15:57:45;15.20;57.60
3408;DHT22;1717;50.240;8.406;2023-04-25T16:00:13;15.30;57.30
3408;DHT22;1717;50.240;8.406;2023-04-25T16:02:44;15.30;56.80
3408;DHT22;1717;50.240;8.406;2023-04-25T16:05:11;15.30;56.80
3408;DHT22;1717;50.240;8.406;2023-04-25T16:07:39;15.30;56.90
3408;DHT22;1717;50.240;8.406;2023-04-25T16:10:07;15.20;56.80